createdAt,value
2023-01-17T00:00:08.947Z,3.90
2023-01-17T00:02:45.756Z,2.10
2023-01-17T00:05:32.594Z,3.87
2023-01-17T00:08:36.343Z,3.60
2023-01-17T00:11:09.062Z,3.33
2023-01-17T00:13:40.870Z,2.90
2023-01-17T00:16:09.324Z,2.33
2023-01-17T00:18:37.489Z,3.50
2023-01-17T00:21:25.028Z,2.50
2023-01-17T00:24:10.492Z,2.60
2023-01-17T00:26:58.417Z,2.67
2023-01-17T00:29:26.345Z,2.33
2023-01-17T00:31:56.104Z,3.30
2023-01-17T00:34:24.354Z,3.53
2023-01-17T00:36:51.323Z,0.93
2023-01-17T00:39:19.401Z,3.13
2023-01-17T00:41:49.183Z,5.90
2023-01-17T00:44:37.239Z,3.73
2023-01-17T00:47:23.207Z,4.93
2023-01-17T00:50:10.928Z,5.33
2023-01-17T00:52:56.895Z,3.83
2023-01-17T00:55:43.922Z,3.33
2023-01-17T00:58:30.885Z,4.20
2023-01-17T01:01:17.204Z,2.83
2023-01-17T01:04:04.236Z,3.57
2023-01-17T01:06:49.826Z,3.10
2023-01-17T01:10:10.817Z,2.97
2023-01-17T01:13:03.185Z,3.03
2023-01-17T01:15:52.542Z,1.93
2023-01-17T01:18:39.923Z,1.50
2023-01-17T01:21:27.130Z,3.23
2023-01-17T01:24:14.755Z,2.67
2023-01-17T01:27:02.166Z,2.70
2023-01-17T01:29:57.390Z,4.33
2023-01-17T01:32:44.591Z,3.97
2023-01-17T01:35:16.522Z,4.00
2023-01-17T01:37:48.462Z,5.10
2023-01-17T01:40:19.984Z,2.20
2023-01-17T01:42:53.769Z,2.47
2023-01-17T01:45:24.010Z,4.00
2023-01-17T01:48:05.226Z,2.87
2023-01-17T01:50:38.584Z,3.00
2023-01-17T01:53:12.625Z,3.23
2023-01-17T01:55:45.592Z,3.47
2023-01-17T01:58:20.709Z,2.53
2023-01-17T02:00:49.177Z,5.77
2023-01-17T02:03:27.115Z,5.97
2023-01-17T02:05:59.062Z,1.53
2023-01-17T02:08:28.792Z,2.43
2023-01-17T02:10:57.891Z,2.77
2023-01-17T02:13:26.100Z,2.43
2023-01-17T02:16:03.329Z,3.43
2023-01-17T02:18:47.898Z,9.17
2023-01-17T02:21:28.831Z,3.53
2023-01-17T02:24:44.274Z,3.63
2023-01-17T02:27:25.269Z,2.17
2023-01-17T02:30:33.295Z,2.77
2023-01-17T02:33:18.196Z,6.30
2023-01-17T02:35:58.645Z,2.97
2023-01-17T02:38:36.970Z,1.90
2023-01-17T02:41:08.030Z,5.30
2023-01-17T02:43:39.968Z,3.47
2023-01-17T02:46:14.095Z,3.57
2023-01-17T02:48:49.116Z,2.70
2023-01-17T02:51:41.913Z,3.67
2023-01-17T02:54:38.327Z,5.20
2023-01-17T02:57:25.227Z,1.90
2023-01-17T03:00:01.489Z,2.90
2023-01-17T03:02:44.821Z,4.23
2023-01-17T03:05:23.183Z,3.83
2023-01-17T03:07:56.560Z,3.50
2023-01-17T03:10:33.104Z,4.37
2023-01-17T03:13:03.921Z,4.03
2023-01-17T03:15:33.796Z,2.33
2023-01-17T03:18:07.001Z,2.73
2023-01-17T03:20:37.317Z,3.90
2023-01-17T03:23:07.247Z,2.50
2023-01-17T03:25:35.562Z,3.27
2023-01-17T03:28:04.352Z,3.17
2023-01-17T03:30:33.072Z,2.50
2023-01-17T03:33:03.864Z,4.23
2023-01-17T03:35:37.471Z,4.50
2023-01-17T03:38:09.932Z,2.07
2023-01-17T03:40:39.403Z,5.10
2023-01-17T03:43:07.980Z,4.77
2023-01-17T03:45:36.686Z,2.87
2023-01-17T03:48:07.571Z,2.93
2023-01-17T03:50:44.690Z,3.97
2023-01-17T03:53:15.355Z,2.90
2023-01-17T03:55:48.265Z,5.30
2023-01-17T03:58:17.763Z,2.23
2023-01-17T04:00:46.205Z,3.40
2023-01-17T04:03:18.438Z,3.93
2023-01-17T04:05:50.092Z,4.20
2023-01-17T04:08:21.474Z,5.03
2023-01-17T04:10:52.352Z,4.97
2023-01-17T04:13:23.902Z,5.17
2023-01-17T04:15:52.716Z,4.43
2023-01-17T04:18:24.761Z,3.20
2023-01-17T04:20:56.914Z,2.30
2023-01-17T04:23:26.433Z,2.60
2023-01-17T04:25:55.178Z,4.03
2023-01-17T04:28:26.156Z,6.57
2023-01-17T04:30:55.029Z,4.20
2023-01-17T04:33:23.827Z,5.87
2023-01-17T04:35:58.282Z,3.70
2023-01-17T04:38:30.257Z,3.80
2023-01-17T04:41:14.779Z,2.67
2023-01-17T04:43:45.425Z,3.87
2023-01-17T04:46:14.106Z,4.17
2023-01-17T04:48:43.421Z,3.80
2023-01-17T04:51:15.474Z,4.83
2023-01-17T04:53:44.700Z,4.00
2023-01-17T04:56:16.091Z,6.50
2023-01-17T04:58:45.814Z,5.23
2023-01-17T05:01:15.981Z,3.87
2023-01-17T05:03:47.045Z,3.67
2023-01-17T05:06:24.809Z,2.23
2023-01-17T05:08:54.075Z,5.20
2023-01-17T05:11:23.519Z,4.27
2023-01-17T05:13:52.985Z,4.37
2023-01-17T05:16:21.168Z,3.37
2023-01-17T05:18:53.090Z,6.37
2023-01-17T05:21:27.123Z,5.97
2023-01-17T05:23:57.087Z,3.07
2023-01-17T05:26:30.348Z,4.37
2023-01-17T05:29:04.675Z,5.53
2023-01-17T05:31:41.131Z,4.13
2023-01-17T05:34:10.015Z,6.07
2023-01-17T05:36:39.939Z,5.17
2023-01-17T05:39:33.059Z,5.57
2023-01-17T05:42:10.018Z,3.17
2023-01-17T05:44:45.884Z,6.00
2023-01-17T05:47:15.065Z,3.17
2023-01-17T05:49:46.004Z,6.17
2023-01-17T05:52:16.177Z,5.10
2023-01-17T05:54:51.170Z,3.77
2023-01-17T05:57:19.069Z,6.23
2023-01-17T05:59:51.033Z,5.20
2023-01-17T06:02:21.927Z,5.23
2023-01-17T06:04:51.923Z,6.50
2023-01-17T06:07:22.851Z,4.07
2023-01-17T06:09:56.235Z,4.27
2023-01-17T06:12:27.426Z,5.67
2023-01-17T06:14:56.739Z,5.57
2023-01-17T06:17:30.923Z,5.23
2023-01-17T06:20:02.475Z,5.03
2023-01-17T06:22:32.837Z,7.43
2023-01-17T06:25:02.502Z,8.30
2023-01-17T06:27:33.612Z,5.70
2023-01-17T06:30:04.343Z,6.23
2023-01-17T06:32:36.102Z,5.53
2023-01-17T06:35:06.110Z,5.00
2023-01-17T06:37:37.055Z,6.80
2023-01-17T06:40:15.337Z,4.77
2023-01-17T06:42:43.735Z,6.07
2023-01-17T06:48:10.623Z,6.23
2023-01-17T06:50:45.215Z,7.20
2023-01-17T06:53:15.983Z,7.13
2023-01-17T06:55:44.089Z,7.43
2023-01-17T06:58:12.836Z,8.50
2023-01-17T07:00:43.636Z,7.03
2023-01-17T07:03:20.104Z,6.53
2023-01-17T07:05:48.682Z,7.07
2023-01-17T07:08:20.564Z,6.07
2023-01-17T07:10:50.405Z,6.57
2023-01-17T07:13:19.859Z,5.47
2023-01-17T07:15:50.755Z,5.93
2023-01-17T07:18:25.641Z,7.67
2023-01-17T07:20:56.311Z,7.43
2023-01-17T07:23:34.485Z,6.83
2023-01-17T07:26:06.101Z,6.87
2023-01-17T07:28:40.527Z,8.00
2023-01-17T07:31:14.220Z,6.00
2023-01-17T07:36:26.694Z,9.27
2023-01-17T07:39:00.229Z,7.37
2023-01-17T07:41:34.171Z,8.10
2023-01-17T07:44:07.076Z,6.63
2023-01-17T07:46:38.455Z,5.77
2023-01-17T07:49:08.376Z,6.90
2023-01-17T07:51:39.635Z,6.77
2023-01-17T07:54:12.797Z,5.53
2023-01-17T07:56:47.129Z,9.57
2023-01-17T07:59:17.633Z,5.37
2023-01-17T08:01:51.738Z,8.30
2023-01-17T08:04:23.480Z,8.53
2023-01-17T08:06:52.257Z,8.97
2023-01-17T08:09:27.170Z,7.67
2023-01-17T08:12:02.279Z,6.30
2023-01-17T08:14:34.298Z,8.53
2023-01-17T08:17:11.410Z,9.80
2023-01-17T08:19:39.968Z,7.20
2023-01-17T08:22:17.449Z,8.63
2023-01-17T08:27:46.951Z,6.13
2023-01-17T08:30:16.021Z,8.63
2023-01-17T08:33:11.756Z,9.70
2023-01-17T08:36:00.121Z,7.20
2023-01-17T08:38:46.320Z,6.27
2023-01-17T08:41:17.104Z,6.80
2023-01-17T08:43:48.856Z,8.23
2023-01-17T08:46:17.547Z,6.33
2023-01-17T08:48:52.396Z,6.77
2023-01-17T08:51:24.950Z,7.17
2023-01-17T08:53:55.613Z,6.97
2023-01-17T08:56:29.030Z,7.30
2023-01-17T08:59:00.722Z,6.50
2023-01-17T09:01:33.438Z,9.07
2023-01-17T09:09:54.435Z,6.17
2023-01-17T09:12:23.910Z,5.63
2023-01-17T09:14:53.549Z,5.90
2023-01-17T09:17:23.737Z,6.80
2023-01-17T09:19:53.293Z,6.07
2023-01-17T09:22:24.024Z,9.43
2023-01-17T09:25:17.214Z,5.83
2023-01-17T09:27:51.569Z,5.83
2023-01-17T09:30:26.727Z,8.03
2023-01-17T09:32:58.302Z,4.97
2023-01-17T09:35:32.448Z,8.00
2023-01-17T09:41:23.081Z,6.60
2023-01-17T09:46:50.307Z,5.37
2023-01-17T09:49:34.857Z,6.87
2023-01-17T09:52:06.176Z,5.30
2023-01-17T09:54:38.196Z,7.47
2023-01-17T10:00:53.804Z,5.30
2023-01-17T10:04:00.039Z,6.30
2023-01-17T10:06:47.226Z,4.60
2023-01-17T10:09:34.108Z,5.50
2023-01-17T10:12:20.440Z,4.07
2023-01-17T10:15:19.237Z,5.10
2023-01-17T10:17:59.250Z,5.50
2023-01-17T10:21:14.275Z,4.83
2023-01-17T10:24:18.871Z,4.03
2023-01-17T10:27:36.563Z,3.33
2023-01-17T10:30:15.113Z,5.77
2023-01-17T10:32:50.600Z,4.63
2023-01-17T10:35:25.719Z,4.63
2023-01-17T10:37:57.427Z,3.87
2023-01-17T10:40:37.313Z,5.10
2023-01-17T10:43:43.127Z,7.40
2023-01-17T10:46:19.007Z,5.53
2023-01-17T10:48:53.921Z,4.27
2023-01-17T10:51:54.963Z,2.70
2023-01-17T10:54:38.976Z,3.27
2023-01-17T10:57:15.876Z,5.73
2023-01-17T10:59:45.880Z,3.63
2023-01-17T11:02:44.123Z,3.03
2023-01-17T11:05:34.925Z,6.07
2023-01-17T11:08:22.038Z,2.60
2023-01-17T11:10:54.429Z,2.27
2023-01-17T11:13:30.621Z,3.97
2023-01-17T11:16:04.462Z,7.57
2023-01-17T11:18:43.368Z,3.00
2023-01-17T11:21:20.015Z,3.37
2023-01-17T11:23:50.864Z,7.20
2023-01-17T11:26:27.883Z,6.67
2023-01-17T11:29:15.608Z,4.57
2023-01-17T11:31:44.664Z,4.90
2023-01-17T11:34:19.256Z,5.63
2023-01-17T11:36:48.826Z,4.50
2023-01-17T11:39:37.920Z,6.63
2023-01-17T11:42:24.673Z,4.47
2023-01-17T11:44:55.053Z,3.87
2023-01-17T11:47:25.513Z,3.43
2023-01-17T11:50:03.257Z,4.50
2023-01-17T11:52:39.318Z,4.27
2023-01-17T11:55:08.655Z,4.23
2023-01-17T11:57:42.683Z,3.90
2023-01-17T12:00:19.437Z,5.70
2023-01-17T12:03:22.829Z,5.10
2023-01-17T12:06:11.749Z,2.77
2023-01-17T12:08:57.554Z,9.73
2023-01-17T12:11:37.359Z,4.67
2023-01-17T12:14:15.833Z,3.17
2023-01-17T12:17:06.577Z,4.90
2023-01-17T12:19:54.926Z,3.70
2023-01-17T12:22:37.615Z,3.60
2023-01-17T12:25:25.060Z,4.57
2023-01-17T12:28:11.499Z,2.57
2023-01-17T12:30:50.240Z,7.33
2023-01-17T12:33:36.960Z,4.57
2023-01-17T12:36:17.782Z,5.23
2023-01-17T12:38:50.094Z,4.80
2023-01-17T12:41:28.867Z,3.67
2023-01-17T12:44:03.772Z,3.07
2023-01-17T12:46:38.593Z,5.00
2023-01-17T12:49:24.159Z,3.73
2023-01-17T12:52:36.159Z,4.47
2023-01-17T12:55:15.337Z,4.27
2023-01-17T12:57:47.600Z,5.10
2023-01-17T13:00:24.094Z,4.37
2023-01-17T13:03:02.551Z,2.37
2023-01-17T13:05:38.229Z,3.23
2023-01-17T13:08:19.919Z,4.70
2023-01-17T13:10:58.546Z,5.93
2023-01-17T13:13:30.484Z,6.53
2023-01-17T13:16:10.927Z,4.17
2023-01-17T13:18:46.625Z,4.93
2023-01-17T13:21:32.024Z,5.70
2023-01-17T13:24:28.669Z,4.07
2023-01-17T13:30:52.133Z,5.20
2023-01-17T13:33:55.533Z,4.77
2023-01-17T13:36:50.871Z,3.30
2023-01-17T13:39:48.379Z,6.33
2023-01-17T13:42:27.270Z,3.47
2023-01-17T13:44:58.865Z,3.43
2023-01-17T13:47:45.748Z,3.60
2023-01-17T13:50:48.215Z,2.77
2023-01-17T13:53:55.788Z,3.63
2023-01-17T13:57:00.404Z,4.73
2023-01-17T13:59:32.231Z,5.13
2023-01-17T14:02:02.992Z,5.10
2023-01-17T14:05:11.977Z,3.97
2023-01-17T14:08:01.734Z,5.87
2023-01-17T14:10:39.684Z,4.43
2023-01-17T14:13:31.735Z,5.90
2023-01-17T14:16:01.682Z,3.57
2023-01-17T14:18:35.015Z,4.10
2023-01-17T14:21:14.794Z,5.80
2023-01-17T14:24:03.821Z,3.83
2023-01-17T14:26:50.205Z,9.20
2023-01-17T14:29:48.105Z,4.77
2023-01-17T14:32:18.920Z,6.03
2023-01-17T14:34:48.964Z,3.97
2023-01-17T14:37:28.074Z,3.83
2023-01-17T14:39:57.872Z,5.50
2023-01-17T14:42:32.997Z,4.27
2023-01-17T14:45:06.102Z,4.17
2023-01-17T14:47:39.543Z,3.47
2023-01-17T14:50:20.700Z,3.20
2023-01-17T14:53:15.837Z,5.83
2023-01-17T14:55:52.088Z,4.70
2023-01-17T14:58:24.552Z,2.90
2023-01-17T15:01:03.346Z,4.70
2023-01-17T15:03:36.645Z,3.40
2023-01-17T15:06:14.759Z,5.03
2023-01-17T15:08:45.402Z,5.23
2023-01-17T15:11:21.501Z,4.47
2023-01-17T15:13:57.615Z,4.17
2023-01-17T15:16:30.949Z,5.23
2023-01-17T15:19:00.639Z,8.80
2023-01-17T15:21:32.989Z,6.53
2023-01-17T15:24:09.609Z,6.13
2023-01-17T15:26:46.574Z,5.23
2023-01-17T15:29:26.018Z,6.60
2023-01-17T15:31:58.354Z,4.10
2023-01-17T15:34:29.345Z,5.23
2023-01-17T15:37:02.569Z,4.03
2023-01-17T15:39:35.938Z,5.97
2023-01-17T15:42:07.501Z,8.47
2023-01-17T15:44:49.444Z,4.30
2023-01-17T15:47:34.042Z,7.07
2023-01-17T15:50:04.500Z,7.77
2023-01-17T15:52:32.927Z,4.23
2023-01-17T15:55:27.204Z,6.70
2023-01-17T15:57:57.206Z,8.00
2023-01-17T16:00:32.610Z,6.00
2023-01-17T16:03:01.435Z,7.13
2023-01-17T16:05:43.906Z,4.27
2023-01-17T16:08:48.926Z,9.53
2023-01-17T16:11:19.147Z,8.40
2023-01-17T16:13:49.460Z,5.77
2023-01-17T16:16:26.593Z,4.90
2023-01-17T16:19:01.722Z,7.90
2023-01-17T16:21:32.324Z,6.40
2023-01-17T16:24:05.566Z,6.23
2023-01-17T16:26:40.122Z,7.00
2023-01-17T16:29:08.745Z,9.37
2023-01-17T16:31:37.853Z,6.37
2023-01-17T16:34:19.758Z,10.00
2023-01-17T16:36:50.687Z,8.93
2023-01-17T16:39:22.157Z,11.37
2023-01-17T16:42:02.406Z,15.77
2023-01-17T16:44:33.598Z,11.03
2023-01-17T16:47:03.609Z,9.87
2023-01-17T16:49:33.782Z,9.10
2023-01-17T16:52:06.202Z,10.33
2023-01-17T16:54:34.709Z,9.60
2023-01-17T16:57:06.641Z,6.07
2023-01-17T16:59:50.002Z,6.30
2023-01-17T17:02:21.088Z,8.57
2023-01-17T17:04:50.135Z,7.83
2023-01-17T17:07:19.572Z,6.07
2023-01-17T17:09:48.175Z,8.10
2023-01-17T17:12:19.433Z,6.20
2023-01-17T17:14:48.100Z,8.97
2023-01-17T17:17:19.878Z,6.90
2023-01-17T17:19:49.439Z,14.40
2023-01-17T17:22:17.557Z,9.53
2023-01-17T17:24:46.372Z,6.33
2023-01-17T17:27:20.967Z,8.33
2023-01-17T17:29:49.403Z,9.37
2023-01-17T17:32:18.006Z,11.17
2023-01-17T17:34:56.313Z,11.83
2023-01-17T17:37:47.530Z,7.50
2023-01-17T17:40:17.670Z,6.60
2023-01-17T17:42:55.287Z,9.23
2023-01-17T17:45:23.496Z,7.33
2023-01-17T17:47:52.363Z,18.93
2023-01-17T17:50:20.530Z,9.63
2023-01-17T17:52:54.708Z,10.27
2023-01-17T17:55:22.918Z,12.90
2023-01-17T17:57:55.143Z,9.40
2023-01-17T18:00:25.607Z,11.03
2023-01-17T18:02:54.153Z,8.80
2023-01-17T18:05:24.673Z,13.07
2023-01-17T18:07:53.344Z,11.73
2023-01-17T18:10:22.134Z,11.13
2023-01-17T18:12:51.472Z,8.13
2023-01-17T18:15:24.633Z,11.03
2023-01-17T18:17:55.727Z,9.50
2023-01-17T18:20:25.047Z,10.80
2023-01-17T18:22:53.710Z,11.07
2023-01-17T18:25:21.723Z,13.43
2023-01-17T18:27:49.596Z,11.70
2023-01-17T18:30:21.260Z,12.17
2023-01-17T18:32:51.697Z,10.53
2023-01-17T18:35:22.351Z,10.20
2023-01-17T18:37:51.095Z,12.20
2023-01-17T18:40:19.479Z,10.33
2023-01-17T18:42:49.802Z,11.07
2023-01-17T18:45:18.312Z,10.07
2023-01-17T18:47:48.223Z,8.27
2023-01-17T18:50:18.282Z,8.60
2023-01-17T18:52:49.393Z,7.63
2023-01-17T18:55:18.368Z,9.20
2023-01-17T18:57:47.244Z,8.13
2023-01-17T19:00:16.319Z,9.27
2023-01-17T19:02:49.103Z,10.00
2023-01-17T19:05:21.753Z,10.47
2023-01-17T19:07:50.908Z,10.27
2023-01-17T19:10:20.427Z,9.73
2023-01-17T19:12:51.101Z,9.47
2023-01-17T19:15:19.141Z,9.73
2023-01-17T19:17:48.031Z,10.37
2023-01-17T19:20:27.017Z,7.57
2023-01-17T19:22:57.283Z,8.53
2023-01-17T19:25:26.038Z,6.67
2023-01-17T19:27:54.709Z,7.83
2023-01-17T19:30:23.843Z,9.67
2023-01-17T19:32:56.047Z,12.37
2023-01-17T19:35:25.942Z,7.77
2023-01-17T19:37:55.731Z,8.07
2023-01-17T19:40:24.265Z,9.27
2023-01-17T19:42:52.815Z,7.37
2023-01-17T19:45:20.740Z,8.73
2023-01-17T19:47:49.323Z,8.17
2023-01-17T19:50:22.544Z,10.10
2023-01-17T19:52:59.553Z,11.37
2023-01-17T19:55:28.136Z,10.33
2023-01-17T19:58:06.176Z,9.57
2023-01-17T20:00:45.983Z,9.73
2023-01-17T20:03:15.360Z,13.63
2023-01-17T20:05:44.950Z,12.57
2023-01-17T20:08:16.261Z,10.57
2023-01-17T20:10:49.381Z,15.03
2023-01-17T20:13:18.707Z,9.03
2023-01-17T20:15:48.915Z,10.30
2023-01-17T20:18:17.622Z,10.60
2023-01-17T20:20:57.036Z,9.77
2023-01-17T20:23:35.651Z,12.50
2023-01-17T20:26:07.859Z,8.80
2023-01-17T20:28:52.225Z,10.53
2023-01-17T20:31:22.955Z,8.07
2023-01-17T20:33:52.273Z,11.50
2023-01-17T20:36:22.203Z,8.40
2023-01-17T20:38:53.195Z,12.27
2023-01-17T20:41:23.085Z,9.37
2023-01-17T20:43:53.549Z,10.83
2023-01-17T20:46:23.753Z,10.40
2023-01-17T20:48:55.946Z,11.13
2023-01-17T20:51:26.106Z,12.73
2023-01-17T20:53:57.503Z,8.93
2023-01-17T20:56:26.826Z,8.07
2023-01-17T20:58:56.038Z,8.40
2023-01-17T21:01:24.761Z,11.03
2023-01-17T21:03:54.171Z,8.73
2023-01-17T21:06:25.992Z,9.60
2023-01-17T21:08:56.209Z,9.77
2023-01-17T21:11:27.508Z,8.07
2023-01-17T21:13:57.602Z,8.60
2023-01-17T21:16:29.427Z,6.93
2023-01-17T21:18:57.216Z,8.80
2023-01-17T21:21:28.881Z,7.90
2023-01-17T21:24:00.261Z,6.90
2023-01-17T21:26:29.842Z,9.40
2023-01-17T21:29:01.892Z,9.50
2023-01-17T21:31:34.798Z,7.83
2023-01-17T21:34:05.333Z,6.77
2023-01-17T21:36:36.249Z,8.93
2023-01-17T21:39:09.143Z,8.70
2023-01-17T21:41:39.385Z,6.63
2023-01-17T21:44:10.070Z,8.33
2023-01-17T21:46:39.591Z,6.27
2023-01-17T21:49:12.081Z,6.93
2023-01-17T21:51:57.921Z,6.53
2023-01-17T21:54:47.425Z,8.63
2023-01-17T21:57:37.158Z,9.33
2023-01-17T22:00:14.336Z,8.20
2023-01-17T22:02:45.261Z,7.20
2023-01-17T22:05:13.587Z,8.97
2023-01-17T22:08:02.729Z,8.60
2023-01-17T22:10:32.874Z,7.50
2023-01-17T22:13:02.797Z,7.70
2023-01-17T22:15:34.901Z,7.10
2023-01-17T22:18:04.665Z,9.07
2023-01-17T22:20:34.371Z,6.23
2023-01-17T22:23:02.255Z,9.27
2023-01-17T22:25:32.152Z,8.13
2023-01-17T22:28:01.244Z,8.03
2023-01-17T22:30:30.883Z,9.13
2023-01-17T22:33:01.428Z,5.40
2023-01-17T22:35:33.847Z,8.83
2023-01-17T22:38:06.026Z,7.53
2023-01-17T22:40:38.222Z,7.43
2023-01-17T22:43:07.563Z,7.37
2023-01-17T22:45:35.994Z,8.33
2023-01-17T22:48:06.021Z,6.97
2023-01-17T22:50:34.249Z,8.27
2023-01-17T22:53:04.263Z,7.97
2023-01-17T22:55:35.565Z,7.10
2023-01-17T22:58:04.851Z,6.77
2023-01-17T23:00:34.706Z,7.17
2023-01-17T23:03:02.648Z,9.20
2023-01-17T23:05:31.221Z,6.93
2023-01-17T23:08:02.185Z,10.50
2023-01-17T23:10:47.508Z,8.73
2023-01-17T23:13:17.728Z,7.07
2023-01-17T23:16:17.532Z,8.40
2023-01-17T23:19:03.103Z,8.57
2023-01-17T23:21:51.343Z,8.30
2023-01-17T23:24:20.329Z,9.90
2023-01-17T23:27:04.937Z,7.90
2023-01-17T23:29:36.985Z,11.37
2023-01-17T23:32:06.676Z,8.53
2023-01-17T23:34:40.316Z,10.17
2023-01-17T23:37:08.377Z,11.83
2023-01-17T23:39:38.663Z,8.57
2023-01-17T23:42:25.445Z,8.87
2023-01-17T23:44:55.743Z,8.70
2023-01-17T23:47:23.780Z,7.53
2023-01-17T23:49:52.977Z,7.97
2023-01-17T23:52:22.343Z,8.27
2023-01-17T23:54:53.234Z,7.50
2023-01-17T23:57:29.854Z,9.77
2023-01-17T23:59:59.341Z,11.47
